sensor_id;sensor_type;location;lat;lon;timestamp;pressure;altitude;pressure_sealevel;temperature;humidity
11985;BME280;6052;53.246;10.368;2023-03-21T00:00:45;101115.97;;;10.79;100.00
11985;BME280;6052;53.246;10.368;2023-03-21T00:03:16;101121.34;;;10.79;100.00
11985;BME280;6052;53.246;10.368;2023-03-21T00:05:45;101120.91;;;10.82;100.00
11985;BME280;6052;53.246;10.368;2023-03-21T00:08:18;101122.53;;;10.83;100.00
11985;BME280;6052;53.246;10.368;2023-03-21T00:10:54;101116.13;;;10.84;100.00
11985;BME280;6052;53.246;10.368;2023-03-21T00:13:28;101116.63;;;10.63;100.00
11985;BME280;6052;53.246;10.368;2023-03-21T00:16:03;101115.13;;;10.67;100.00
11985;BME280;6052;53.246;10.368;2023-03-21T00:18:53;101109.06;;;10.71;100.00
11985;BME280;6052;53.246;10.368;2023-03-21T00:21:23;101116.25;;;10.89;100.00
11985;BME280;6052;53.246;10.368;2023-03-21T00:24:14;101112.84;;;10.82;100.00
11985;BME280;6052;53.246;10.368;2023-03-21T00:26:43;101112.03;;;10.81;100.00
11985;BME280;6052;53.246;10.368;2023-03-21T00:29:16;101110.66;;;10.90;100.00
11985;BME280;6052;53.246;10.368;2023-03-21T00:31:45;101105.59;;;10.71;100.00
11985;BME280;6052;53.246;10.368;2023-03-21T00:34:14;101102.47;;;10.85;100.00
11985;BME280;6052;53.246;10.368;2023-03-21T00:37:02;101101.09;;;10.65;100.00
11985;BME280;6052;53.246;10.368;2023-03-21T00:39:32;101092.78;;;10.84;100.00
11985;BME280;6052;53.246;10.368;2023-03-21T00:42:02;101087.28;;;10.79;100.00
11985;BME280;6052;53.246;10.368;2023-03-21T00:44:34;101093.00;;;10.83;100.00
11985;BME280;6052;53.246;10.368;2023-03-21T00:47:05;101087.97;;;10.86;100.00
11985;BME280;6052;53.246;10.368;2023-03-21T00:49:35;101093.63;;;10.96;100.00
11985;BME280;6052;53.246;10.368;2023-03-21T00:52:07;101090.22;;;10.89;100.00
11985;BME280;6052;53.246;10.368;2023-03-21T00:54:47;101091.41;;;10.93;100.00
11985;BME280;6052;53.246;10.368;2023-03-21T00:57:17;101088.94;;;10.92;100.00
11985;BME280;6052;53.246;10.368;2023-03-21T01:00:05;101085.00;;;10.94;100.00
11985;BME280;6052;53.246;10.368;2023-03-21T01:02:36;101084.28;;;10.99;100.00
11985;BME280;6052;53.246;10.368;2023-03-21T01:05:10;101084.38;;;10.92;100.00
11985;BME280;6052;53.246;10.368;2023-03-21T01:08:00;101084.72;;;10.84;100.00
11985;BME280;6052;53.246;10.368;2023-03-21T01:10:50;101078.13;;;10.69;100.00
11985;BME280;6052;53.246;10.368;2023-03-21T01:13:23;101067.75;;;10.72;100.00
11985;BME280;6052;53.246;10.368;2023-03-21T01:15:58;101074.91;;;10.78;100.00
11985;BME280;6052;53.246;10.368;2023-03-21T01:18:32;101073.63;;;10.81;100.00
11985;BME280;6052;53.246;10.368;2023-03-21T01:21:06;101071.31;;;10.84;100.00
11985;BME280;6052;53.246;10.368;2023-03-21T01:23:36;101073.16;;;10.84;100.00
11985;BME280;6052;53.246;10.368;2023-03-21T01:26:07;101065.13;;;10.95;100.00
11985;BME280;6052;53.246;10.368;2023-03-21T01:28:38;101068.03;;;10.94;100.00
11985;BME280;6052;53.246;10.368;2023-03-21T01:31:11;101071.06;;;10.86;100.00
11985;BME280;6052;53.246;10.368;2023-03-21T01:33:41;101066.84;;;10.90;100.00
11985;BME280;6052;53.246;10.368;2023-03-21T01:36:14;101064.31;;;10.95;100.00
11985;BME280;6052;53.246;10.368;2023-03-21T01:38:48;101064.44;;;10.88;100.00
11985;BME280;6052;53.246;10.368;2023-03-21T01:41:27;101064.75;;;10.80;100.00
11985;BME280;6052;53.246;10.368;2023-03-21T01:44:16;101063.25;;;10.84;100.00
11985;BME280;6052;53.246;10.368;2023-03-21T01:46:50;101059.03;;;10.77;100.00
11985;BME280;6052;53.246;10.368;2023-03-21T01:49:40;101071.78;;;10.93;100.00
11985;BME280;6052;53.246;10.368;2023-03-21T01:52:14;101066.59;;;10.80;100.00
11985;BME280;6052;53.246;10.368;2023-03-21T01:55:01;101060.22;;;10.92;100.00
11985;BME280;6052;53.246;10.368;2023-03-21T01:57:35;101063.81;;;10.86;100.00
11985;BME280;6052;53.246;10.368;2023-03-21T02:00:25;101062.06;;;10.80;100.00
11985;BME280;6052;53.246;10.368;2023-03-21T02:03:00;101065.34;;;10.94;100.00
11985;BME280;6052;53.246;10.368;2023-03-21T02:05:51;101050.47;;;10.80;100.00
11985;BME280;6052;53.246;10.368;2023-03-21T02:08:22;101045.03;;;10.86;100.00
11985;BME280;6052;53.246;10.368;2023-03-21T02:11:05;101053.91;;;10.87;100.00
11985;BME280;6052;53.246;10.368;2023-03-21T02:13:35;101047.56;;;10.81;100.00
11985;BME280;6052;53.246;10.368;2023-03-21T02:16:11;101051.50;;;10.67;100.00
11985;BME280;6052;53.246;10.368;2023-03-21T02:18:51;101047.47;;;10.88;100.00
11985;BME280;6052;53.246;10.368;2023-03-21T02:27:32;101037.41;;;10.72;100.00
11985;BME280;6052;53.246;10.368;2023-03-21T02:33:35;101038.34;;;10.77;100.00
11985;BME280;6052;53.246;10.368;2023-03-21T02:36:25;101026.22;;;10.86;100.00
11985;BME280;6052;53.246;10.368;2023-03-21T02:39:05;101028.09;;;10.86;100.00
11985;BME280;6052;53.246;10.368;2023-03-21T02:41:45;101028.59;;;10.94;100.00
11985;BME280;6052;53.246;10.368;2023-03-21T02:44:20;101026.00;;;10.88;100.00
11985;BME280;6052;53.246;10.368;2023-03-21T02:46:54;101034.06;;;10.88;100.00
11985;BME280;6052;53.246;10.368;2023-03-21T02:49:34;101027.50;;;10.84;100.00
11985;BME280;6052;53.246;10.368;2023-03-21T02:52:10;101034.06;;;10.88;100.00
11985;BME280;6052;53.246;10.368;2023-03-21T02:55:00;101034.53;;;10.96;100.00
11985;BME280;6052;53.246;10.368;2023-03-21T02:57:32;101032.56;;;11.03;100.00
11985;BME280;6052;53.246;10.368;2023-03-21T03:00:10;101025.28;;;10.92;100.00
11985;BME280;6052;53.246;10.368;2023-03-21T03:02:42;101022.75;;;10.86;100.00
11985;BME280;6052;53.246;10.368;2023-03-21T03:05:17;101020.53;;;10.94;100.00
11985;BME280;6052;53.246;10.368;2023-03-21T03:08:08;101020.63;;;10.88;100.00
11985;BME280;6052;53.246;10.368;2023-03-21T03:10:51;101021.81;;;10.92;100.00
11985;BME280;6052;53.246;10.368;2023-03-21T03:13:33;101021.31;;;10.95;100.00
11985;BME280;6052;53.246;10.368;2023-03-21T03:16:11;101013.38;;;11.00;100.00
11985;BME280;6052;53.246;10.368;2023-03-21T03:18:49;101012.69;;;10.93;100.00
11985;BME280;6052;53.246;10.368;2023-03-21T03:21:26;101014.22;;;11.00;100.00
11985;BME280;6052;53.246;10.368;2023-03-21T03:24:01;101011.19;;;10.97;100.00
11985;BME280;6052;53.246;10.368;2023-03-21T03:26:39;101017.97;;;10.99;100.00
11985;BME280;6052;53.246;10.368;2023-03-21T03:29:13;101012.69;;;10.93;100.00
11985;BME280;6052;53.246;10.368;2023-03-21T03:31:47;101017.13;;;10.99;100.00
11985;BME280;6052;53.246;10.368;2023-03-21T03:34:22;101012.09;;;11.02;100.00
11985;BME280;6052;53.246;10.368;2023-03-21T03:36:56;101014.56;;;10.92;100.00
11985;BME280;6052;53.246;10.368;2023-03-21T03:39:32;101018.22;;;11.09;100.00
11985;BME280;6052;53.246;10.368;2023-03-21T03:42:09;101014.31;;;10.94;100.00
11985;BME280;6052;53.246;10.368;2023-03-21T03:44:54;101006.97;;;10.89;100.00
11985;BME280;6052;53.246;10.368;2023-03-21T03:47:28;101004.53;;;10.99;100.00
11985;BME280;6052;53.246;10.368;2023-03-21T03:50:13;101001.03;;;10.99;100.00
11985;BME280;6052;53.246;10.368;2023-03-21T03:52:48;101000.56;;;11.02;100.00
11985;BME280;6052;53.246;10.368;2023-03-21T03:55:24;101007.56;;;11.03;100.00
11985;BME280;6052;53.246;10.368;2023-03-21T03:58:02;101006.06;;;11.07;100.00
11985;BME280;6052;53.246;10.368;2023-03-21T04:00:45;101000.44;;;10.97;100.00
11985;BME280;6052;53.246;10.368;2023-03-21T04:03:14;100996.47;;;10.88;100.00
11985;BME280;6052;53.246;10.368;2023-03-21T04:05:44;100999.50;;;10.91;100.00
11985;BME280;6052;53.246;10.368;2023-03-21T04:08:15;100994.47;;;10.83;100.00
11985;BME280;6052;53.246;10.368;2023-03-21T04:10:44;100997.13;;;10.72;100.00
11985;BME280;6052;53.246;10.368;2023-03-21T04:13:16;100995.53;;;10.94;100.00
11985;BME280;6052;53.246;10.368;2023-03-21T04:15:45;101002.75;;;10.82;100.00
11985;BME280;6052;53.246;10.368;2023-03-21T04:18:15;101000.22;;;10.98;100.00
11985;BME280;6052;53.246;10.368;2023-03-21T04:20:44;100997.97;;;10.95;100.00
11985;BME280;6052;53.246;10.368;2023-03-21T04:23:14;100999.72;;;11.01;100.00
11985;BME280;6052;53.246;10.368;2023-03-21T04:25:44;100998.22;;;10.94;100.00
11985;BME280;6052;53.246;10.368;2023-03-21T04:28:24;101001.94;;;10.93;100.00
11985;BME280;6052;53.246;10.368;2023-03-21T04:30:53;100995.19;;;11.02;100.00
11985;BME280;6052;53.246;10.368;2023-03-21T04:33:32;100992.06;;;11.05;100.00
11985;BME280;6052;53.246;10.368;2023-03-21T04:36:05;100988.75;;;11.03;100.00
11985;BME280;6052;53.246;10.368;2023-03-21T04:38:35;100995.06;;;10.97;100.00
11985;BME280;6052;53.246;10.368;2023-03-21T04:41:05;100991.34;;;10.98;100.00
11985;BME280;6052;53.246;10.368;2023-03-21T04:43:36;100991.78;;;11.06;100.00
11985;BME280;6052;53.246;10.368;2023-03-21T04:46:06;100991.78;;;11.06;100.00
11985;BME280;6052;53.246;10.368;2023-03-21T04:48:35;100994.84;;;10.98;100.00
11985;BME280;6052;53.246;10.368;2023-03-21T04:51:05;100996.16;;;11.07;100.00
11985;BME280;6052;53.246;10.368;2023-03-21T04:53:34;100988.88;;;11.08;100.00
11985;BME280;6052;53.246;10.368;2023-03-21T04:56:05;100993.69;;;11.17;100.00
11985;BME280;6052;53.246;10.368;2023-03-21T04:58:37;100992.03;;;11.16;100.00
11985;BME280;6052;53.246;10.368;2023-03-21T05:01:07;100997.66;;;11.15;100.00
11985;BME280;6052;53.246;10.368;2023-03-21T05:03:39;100990.16;;;11.05;100.00
11985;BME280;6052;53.246;10.368;2023-03-21T05:06:09;101000.22;;;11.10;100.00
11985;BME280;6052;53.246;10.368;2023-03-21T05:08:38;100991.91;;;11.11;100.00
11985;BME280;6052;53.246;10.368;2023-03-21T05:11:07;100991.91;;;11.00;100.00
11985;BME280;6052;53.246;10.368;2023-03-21T05:13:39;100992.28;;;11.03;100.00
11985;BME280;6052;53.246;10.368;2023-03-21T05:16:09;100982.56;;;11.02;100.00
11985;BME280;6052;53.246;10.368;2023-03-21T05:18:38;100992.63;;;11.07;100.00
11985;BME280;6052;53.246;10.368;2023-03-21T05:21:08;100985.97;;;10.98;100.00
11985;BME280;6052;53.246;10.368;2023-03-21T05:23:38;100988.19;;;11.01;100.00
11985;BME280;6052;53.246;10.368;2023-03-21T05:26:08;100994.34;;;10.90;100.00
11985;BME280;6052;53.246;10.368;2023-03-21T05:28:40;100994.59;;;11.00;100.00
11985;BME280;6052;53.246;10.368;2023-03-21T05:31:10;100987.47;;;10.94;100.00
11985;BME280;6052;53.246;10.368;2023-03-21T05:33:42;100993.19;;;10.86;100.00
11985;BME280;6052;53.246;10.368;2023-03-21T05:36:12;100989.91;;;10.84;100.00
11985;BME280;6052;53.246;10.368;2023-03-21T05:38:42;100985.47;;;10.78;100.00
11985;BME280;6052;53.246;10.368;2023-03-21T05:41:13;100985.22;;;10.68;100.00
11985;BME280;6052;53.246;10.368;2023-03-21T05:43:47;100995.00;;;10.62;100.00
11985;BME280;6052;53.246;10.368;2023-03-21T05:46:16;100992.19;;;10.57;100.00
11985;BME280;6052;53.246;10.368;2023-03-21T05:48:46;101002.00;;;10.63;100.00
11985;BME280;6052;53.246;10.368;2023-03-21T05:51:15;100998.25;;;10.53;100.00
11985;BME280;6052;53.246;10.368;2023-03-21T05:53:45;101001.28;;;10.56;100.00
11985;BME280;6052;53.246;10.368;2023-03-21T05:56:14;101000.81;;;10.48;100.00
11985;BME280;6052;53.246;10.368;2023-03-21T05:58:47;101003.16;;;10.56;100.00
11985;BME280;6052;53.246;10.368;2023-03-21T06:01:16;100999.06;;;10.53;100.00
11985;BME280;6052;53.246;10.368;2023-03-21T06:03:45;100998.16;;;10.59;100.00
11985;BME280;6052;53.246;10.368;2023-03-21T06:06:15;101006.84;;;10.43;100.00
11985;BME280;6052;53.246;10.368;2023-03-21T06:08:44;100999.63;;;10.44;100.00
11985;BME280;6052;53.246;10.368;2023-03-21T06:11:22;101001.16;;;10.51;100.00
11985;BME280;6052;53.246;10.368;2023-03-21T06:13:55;101002.09;;;10.45;100.00
11985;BME280;6052;53.246;10.368;2023-03-21T06:16:24;101007.22;;;10.47;100.00
11985;BME280;6052;53.246;10.368;2023-03-21T06:18:54;101003.56;;;10.41;100.00
11985;BME280;6052;53.246;10.368;2023-03-21T06:21:23;101008.13;;;10.41;100.00
11985;BME280;6052;53.246;10.368;2023-03-21T06:23:53;101003.81;;;10.40;100.00
11985;BME280;6052;53.246;10.368;2023-03-21T06:26:22;101010.31;;;10.32;100.00
11985;BME280;6052;53.246;10.368;2023-03-21T06:28:55;101011.84;;;10.40;100.00
11985;BME280;6052;53.246;10.368;2023-03-21T06:31:24;101006.25;;;10.41;100.00
11985;BME280;6052;53.246;10.368;2023-03-21T06:33:53;101001.81;;;10.35;100.00
11985;BME280;6052;53.246;10.368;2023-03-21T06:36:22;101008.59;;;10.38;100.00
11985;BME280;6052;53.246;10.368;2023-03-21T06:38:52;101011.34;;;10.31;100.00
11985;BME280;6052;53.246;10.368;2023-03-21T06:41:22;101011.72;;;10.35;100.00
11985;BME280;6052;53.246;10.368;2023-03-21T06:43:51;101013.97;;;10.38;100.00
11985;BME280;6052;53.246;10.368;2023-03-21T06:46:23;101009.31;;;10.45;100.00
11985;BME280;6052;53.246;10.368;2023-03-21T06:48:52;101014.03;;;10.31;100.00
11985;BME280;6052;53.246;10.368;2023-03-21T06:51:21;101011.41;;;10.43;100.00
11985;BME280;6052;53.246;10.368;2023-03-21T06:53:51;101012.53;;;10.35;100.00
11985;BME280;6052;53.246;10.368;2023-03-21T06:56:20;101009.38;;;10.38;100.00
11985;BME280;6052;53.246;10.368;2023-03-21T06:58:50;101007.66;;;10.44;100.00
11985;BME280;6052;53.246;10.368;2023-03-21T07:01:19;101010.13;;;10.45;100.00
11985;BME280;6052;53.246;10.368;2023-03-21T07:03:51;101002.13;;;10.27;100.00
11985;BME280;6052;53.246;10.368;2023-03-21T07:06:22;101006.81;;;10.32;100.00
11985;BME280;6052;53.246;10.368;2023-03-21T07:08:52;101003.22;;;10.38;100.00
11985;BME280;6052;53.246;10.368;2023-03-21T07:11:22;101001.47;;;10.43;100.00
11985;BME280;6052;53.246;10.368;2023-03-21T07:13:52;101010.50;;;10.49;100.00
11985;BME280;6052;53.246;10.368;2023-03-21T07:16:22;101003.88;;;10.33;100.00
11985;BME280;6052;53.246;10.368;2023-03-21T07:18:54;101006.56;;;10.33;100.00
11985;BME280;6052;53.246;10.368;2023-03-21T07:21:23;101013.81;;;10.33;100.00
11985;BME280;6052;53.246;10.368;2023-03-21T07:23:53;101012.78;;;10.34;100.00
11985;BME280;6052;53.246;10.368;2023-03-21T07:26:22;101018.44;;;10.26;100.00
11985;BME280;6052;53.246;10.368;2023-03-21T07:28:51;101027.31;;;10.26;100.00
11985;BME280;6052;53.246;10.368;2023-03-21T07:31:21;101020.81;;;10.34;100.00
11985;BME280;6052;53.246;10.368;2023-03-21T07:33:54;101030.34;;;10.30;100.00
11985;BME280;6052;53.246;10.368;2023-03-21T07:36:24;101031.84;;;10.26;100.00
11985;BME280;6052;53.246;10.368;2023-03-21T07:38:53;101026.19;;;10.34;100.00
11985;BME280;6052;53.246;10.368;2023-03-21T07:41:23;101019.84;;;10.28;100.00
11985;BME280;6052;53.246;10.368;2023-03-21T07:43:52;101032.31;;;10.23;100.00
11985;BME280;6052;53.246;10.368;2023-03-21T07:46:21;101028.50;;;10.30;100.00
11985;BME280;6052;53.246;10.368;2023-03-21T07:48:50;101028.38;;;10.25;100.00
11985;BME280;6052;53.246;10.368;2023-03-21T07:51:22;101030.34;;;10.30;100.00
11985;BME280;6052;53.246;10.368;2023-03-21T07:53:52;101036.91;;;10.34;100.00
11985;BME280;6052;53.246;10.368;2023-03-21T07:56:21;101039.88;;;10.44;100.00
11985;BME280;6052;53.246;10.368;2023-03-21T07:58:51;101033.22;;;10.46;100.00
11985;BME280;6052;53.246;10.368;2023-03-21T08:01:20;101035.22;;;10.51;100.00
11985;BME280;6052;53.246;10.368;2023-03-21T08:03:49;101029.44;;;10.65;100.00
11985;BME280;6052;53.246;10.368;2023-03-21T08:06:22;101029.66;;;10.64;100.00
11985;BME280;6052;53.246;10.368;2023-03-21T08:08:57;101025.81;;;10.60;100.00
11985;BME280;6052;53.246;10.368;2023-03-21T08:11:28;101021.47;;;10.59;100.00
11985;BME280;6052;53.246;10.368;2023-03-21T08:13:59;101014.63;;;10.63;100.00
11985;BME280;6052;53.246;10.368;2023-03-21T08:16:28;101013.66;;;10.57;100.00
11985;BME280;6052;53.246;10.368;2023-03-21T08:18:57;101011.19;;;10.56;100.00
11985;BME280;6052;53.246;10.368;2023-03-21T08:21:29;101007.81;;;10.49;100.00
11985;BME280;6052;53.246;10.368;2023-03-21T08:23:59;101019.25;;;10.56;100.00
11985;BME280;6052;53.246;10.368;2023-03-21T08:26:28;101011.19;;;10.56;100.00
11985;BME280;6052;53.246;10.368;2023-03-21T08:29:22;101015.41;;;10.63;100.00
11985;BME280;6052;53.246;10.368;2023-03-21T08:31:51;101016.84;;;10.66;100.00
11985;BME280;6052;53.246;10.368;2023-03-21T08:34:21;101011.34;;;10.72;100.00
11985;BME280;6052;53.246;10.368;2023-03-21T08:36:54;101018.97;;;10.75;100.00
11985;BME280;6052;53.246;10.368;2023-03-21T08:39:23;101014.75;;;10.68;100.00
11985;BME280;6052;53.246;10.368;2023-03-21T08:41:53;101015.09;;;10.71;100.00
11985;BME280;6052;53.246;10.368;2023-03-21T08:44:23;101013.34;;;10.65;100.00
11985;BME280;6052;53.246;10.368;2023-03-21T08:46:52;101008.09;;;10.70;100.00
11985;BME280;6052;53.246;10.368;2023-03-21T08:49:21;101012.41;;;10.71;100.00
11985;BME280;6052;53.246;10.368;2023-03-21T08:51:56;101023.84;;;10.67;100.00
11985;BME280;6052;53.246;10.368;2023-03-21T08:54:26;101031.56;;;10.75;100.00
11985;BME280;6052;53.246;10.368;2023-03-21T08:56:55;101029.13;;;10.73;100.00
11985;BME280;6052;53.246;10.368;2023-03-21T08:59:25;101027.81;;;10.64;100.00
11985;BME280;6052;53.246;10.368;2023-03-21T09:01:54;101027.69;;;10.59;100.00
11985;BME280;6052;53.246;10.368;2023-03-21T09:04:23;101027.25;;;10.74;100.00
11985;BME280;6052;53.246;10.368;2023-03-21T09:06:58;101030.53;;;10.76;100.00
11985;BME280;6052;53.246;10.368;2023-03-21T09:09:30;101029.97;;;10.85;100.00
11985;BME280;6052;53.246;10.368;2023-03-21T09:12:00;101019.31;;;10.79;100.00
11985;BME280;6052;53.246;10.368;2023-03-21T09:14:30;101022.75;;;10.86;100.00
11985;BME280;6052;53.246;10.368;2023-03-21T09:17:00;101019.78;;;10.87;100.00
11985;BME280;6052;53.246;10.368;2023-03-21T09:19:29;101015.25;;;10.88;100.00
11985;BME280;6052;53.246;10.368;2023-03-21T09:22:03;101014.44;;;10.87;100.00
11985;BME280;6052;53.246;10.368;2023-03-21T09:24:39;101015.34;;;10.81;100.00
11985;BME280;6052;53.246;10.368;2023-03-21T09:27:10;101016.19;;;10.82;100.00
11985;BME280;6052;53.246;10.368;2023-03-21T09:29:41;101016.09;;;10.88;100.00
11985;BME280;6052;53.246;10.368;2023-03-21T09:32:11;101010.59;;;10.95;100.00
11985;BME280;6052;53.246;10.368;2023-03-21T09:34:40;101011.66;;;11.05;100.00
11985;BME280;6052;53.246;10.368;2023-03-21T09:37:12;101003.59;;;10.94;100.00
11985;BME280;6052;53.246;10.368;2023-03-21T09:39:42;100998.09;;;10.89;100.00
11985;BME280;6052;53.246;10.368;2023-03-21T09:42:22;101001.13;;;11.04;100.00
11985;BME280;6052;53.246;10.368;2023-03-21T09:45:01;101006.75;;;11.02;100.00
11985;BME280;6052;53.246;10.368;2023-03-21T09:47:38;100997.28;;;11.11;100.00
11985;BME280;6052;53.246;10.368;2023-03-21T09:50:14;101001.25;;;11.09;100.00
11985;BME280;6052;53.246;10.368;2023-03-21T09:52:52;100999.63;;;10.96;100.00
11985;BME280;6052;53.246;10.368;2023-03-21T09:55:26;100994.59;;;11.11;100.00
11985;BME280;6052;53.246;10.368;2023-03-21T09:58:03;100998.56;;;11.09;100.00
11985;BME280;6052;53.246;10.368;2023-03-21T10:00:36;100993.56;;;11.24;100.00
11985;BME280;6052;53.246;10.368;2023-03-21T10:03:16;100991.91;;;11.23;100.00
11985;BME280;6052;53.246;10.368;2023-03-21T10:05:50;100985.03;;;11.27;100.00
11985;BME280;6052;53.246;10.368;2023-03-21T10:08:27;100982.00;;;11.12;100.00
11985;BME280;6052;53.246;10.368;2023-03-21T10:11:02;100991.25;;;11.16;100.00
11985;BME280;6052;53.246;10.368;2023-03-21T10:13:37;100986.44;;;11.18;100.00
11985;BME280;6052;53.246;10.368;2023-03-21T10:16:11;100992.97;;;11.22;100.00
11985;BME280;6052;53.246;10.368;2023-03-21T10:18:43;100989.34;;;11.39;100.00
11985;BME280;6052;53.246;10.368;2023-03-21T10:21:19;100991.34;;;11.32;100.00
11985;BME280;6052;53.246;10.368;2023-03-21T10:24:15;100985.75;;;11.22;100.00
11985;BME280;6052;53.246;10.368;2023-03-21T10:26:47;100987.38;;;11.35;100.00
11985;BME280;6052;53.246;10.368;2023-03-21T10:29:20;100985.97;;;11.21;100.00
11985;BME280;6052;53.246;10.368;2023-03-21T10:31:54;100991.09;;;11.34;100.00
11985;BME280;6052;53.246;10.368;2023-03-21T10:34:29;100979.78;;;11.32;100.00
11985;BME280;6052;53.246;10.368;2023-03-21T10:37:01;100982.00;;;11.35;100.00
11985;BME280;6052;53.246;10.368;2023-03-21T10:39:35;100979.66;;;11.38;100.00
11985;BME280;6052;53.246;10.368;2023-03-21T10:42:11;100978.25;;;11.36;100.00
11985;BME280;6052;53.246;10.368;2023-03-21T10:44:46;100980.00;;;11.42;100.00
11985;BME280;6052;53.246;10.368;2023-03-21T10:47:19;100970.53;;;11.39;100.00
11985;BME280;6052;53.246;10.368;2023-03-21T10:49:49;100972.41;;;11.39;100.00
11985;BME280;6052;53.246;10.368;2023-03-21T10:52:34;100961.56;;;11.22;100.00
11985;BME280;6052;53.246;10.368;2023-03-21T10:55:16;100954.06;;;11.36;100.00
11985;BME280;6052;53.246;10.368;2023-03-21T10:57:47;100958.38;;;11.37;100.00
11985;BME280;6052;53.246;10.368;2023-03-21T11:00:19;100961.78;;;11.44;100.00
11985;BME280;6052;53.246;10.368;2023-03-21T11:02:51;100955.47;;;11.38;100.00
11985;BME280;6052;53.246;10.368;2023-03-21T11:05:24;100951.84;;;11.33;100.00
11985;BME280;6052;53.246;10.368;2023-03-21T11:07:57;100951.94;;;11.38;100.00
11985;BME280;6052;53.246;10.368;2023-03-21T11:10:33;100944.72;;;11.50;100.00
11985;BME280;6052;53.246;10.368;2023-03-21T11:13:06;100945.78;;;11.37;100.00
11985;BME280;6052;53.246;10.368;2023-03-21T11:15:41;100949.75;;;11.46;100.00
11985;BME280;6052;53.246;10.368;2023-03-21T11:18:17;100941.63;;;11.58;100.00
11985;BME280;6052;53.246;10.368;2023-03-21T11:20:52;100933.56;;;11.58;100.00
11985;BME280;6052;53.246;10.368;2023-03-21T11:23:25;100940.38;;;11.60;100.00
11985;BME280;6052;53.246;10.368;2023-03-21T11:25:59;100936.84;;;11.71;100.00
11985;BME280;6052;53.246;10.368;2023-03-21T11:28:32;100935.06;;;11.77;100.00
11985;BME280;6052;53.246;10.368;2023-03-21T11:31:05;100935.78;;;11.72;100.00
11985;BME280;6052;53.246;10.368;2023-03-21T11:33:38;100933.69;;;11.63;100.00
11985;BME280;6052;53.246;10.368;2023-03-21T11:36:26;100933.69;;;11.63;100.00
11985;BME280;6052;53.246;10.368;2023-03-21T11:39:19;100934.00;;;11.78;100.00
11985;BME280;6052;53.246;10.368;2023-03-21T11:41:56;100936.59;;;11.73;100.00
11985;BME280;6052;53.246;10.368;2023-03-21T11:44:28;100934.59;;;11.80;100.00
11985;BME280;6052;53.246;10.368;2023-03-21T11:46:58;100928.69;;;11.55;100.00
11985;BME280;6052;53.246;10.368;2023-03-21T11:49:28;100920.75;;;11.60;100.00
11985;BME280;6052;53.246;10.368;2023-03-21T11:52:13;100931.38;;;11.66;100.00
11985;BME280;6052;53.246;10.368;2023-03-21T11:54:58;100930.19;;;11.51;100.00
11985;BME280;6052;53.246;10.368;2023-03-21T11:57:43;100925.16;;;11.66;100.00
11985;BME280;6052;53.246;10.368;2023-03-21T12:00:20;100922.22;;;11.79;100.00
11985;BME280;6052;53.246;10.368;2023-03-21T12:06:18;100914.19;;;11.67;100.00
11985;BME280;6052;53.246;10.368;2023-03-21T12:09:01;100915.34;;;11.71;100.00
11985;BME280;6052;53.246;10.368;2023-03-21T12:11:38;100904.91;;;11.75;100.00
11985;BME280;6052;53.246;10.368;2023-03-21T12:14:19;100896.53;;;11.71;100.00
11985;BME280;6052;53.246;10.368;2023-03-21T12:17:04;100893.19;;;11.81;100.00
11985;BME280;6052;53.246;10.368;2023-03-21T12:20:01;100891.91;;;11.83;100.00
11985;BME280;6052;53.246;10.368;2023-03-21T12:22:43;100886.44;;;11.78;100.00
11985;BME280;6052;53.246;10.368;2023-03-21T12:25:21;100883.28;;;11.81;100.00
11985;BME280;6052;53.246;10.368;2023-03-21T12:28:01;100883.50;;;11.80;100.00
11985;BME280;6052;53.246;10.368;2023-03-21T12:30:49;100874.28;;;11.76;100.00
11985;BME280;6052;53.246;10.368;2023-03-21T12:33:30;100870.19;;;11.73;100.00
11985;BME280;6052;53.246;10.368;2023-03-21T12:36:15;100865.38;;;11.75;100.00
11985;BME280;6052;53.246;10.368;2023-03-21T12:38:56;100865.88;;;11.72;100.00
11985;BME280;6052;53.246;10.368;2023-03-21T12:41:33;100853.44;;;11.83;100.00
11985;BME280;6052;53.246;10.368;2023-03-21T12:44:09;100860.91;;;11.81;100.00
11985;BME280;6052;53.246;10.368;2023-03-21T12:46:45;100854.38;;;11.77;100.00
11985;BME280;6052;53.246;10.368;2023-03-21T12:49:17;100854.66;;;11.92;100.00
11985;BME280;6052;53.246;10.368;2023-03-21T12:51:56;100846.50;;;11.87;100.00
11985;BME280;6052;53.246;10.368;2023-03-21T12:54:30;100850.34;;;11.91;100.00
11985;BME280;6052;53.246;10.368;2023-03-21T12:57:05;100847.09;;;11.89;100.00
11985;BME280;6052;53.246;10.368;2023-03-21T12:59:42;100846.41;;;11.82;100.00
11985;BME280;6052;53.246;10.368;2023-03-21T13:02:21;100851.13;;;12.03;100.00
11985;BME280;6052;53.246;10.368;2023-03-21T13:04:56;100832.50;;;11.85;100.00
11985;BME280;6052;53.246;10.368;2023-03-21T13:07:31;100837.22;;;11.94;100.00
11985;BME280;6052;53.246;10.368;2023-03-21T13:10:03;100831.59;;;11.96;100.00
11985;BME280;6052;53.246;10.368;2023-03-21T13:12:43;100825.91;;;11.92;100.00
11985;BME280;6052;53.246;10.368;2023-03-21T13:15:31;100828.78;;;12.02;100.00
11985;BME280;6052;53.246;10.368;2023-03-21T13:18:18;100819.22;;;11.95;100.00
11985;BME280;6052;53.246;10.368;2023-03-21T13:20:53;100817.09;;;11.97;100.00
11985;BME280;6052;53.246;10.368;2023-03-21T13:23:33;100826.06;;;11.86;100.00
11985;BME280;6052;53.246;10.368;2023-03-21T13:26:07;100815.06;;;11.87;100.00
11985;BME280;6052;53.246;10.368;2023-03-21T13:28:39;100819.38;;;11.88;100.00